sensor_id;sensor_type;location;lat;lon;timestamp;pressure;altitude;pressure_sealevel;temperature;humidity
10064;BME280;5071;52.360;13.134;2023-07-20T00:04:09;100580.13;;;16.35;100.00
10064;BME280;5071;52.360;13.134;2023-07-20T00:09:13;100583.75;;;16.33;100.00
10064;BME280;5071;52.360;13.134;2023-07-20T00:14:15;100576.53;;;16.36;100.00
10064;BME280;5071;52.360;13.134;2023-07-20T00:19:17;100574.91;;;16.31;100.00
10064;BME280;5071;52.360;13.134;2023-07-20T00:24:21;100567.97;;;16.26;100.00
10064;BME280;5071;52.360;13.134;2023-07-20T00:29:22;100575.00;;;16.28;100.00
10064;BME280;5071;52.360;13.134;2023-07-20T00:34:25;100573.38;;;16.24;100.00
10064;BME280;5071;52.360;13.134;2023-07-20T00:39:28;100575.25;;;16.22;100.00
10064;BME280;5071;52.360;13.134;2023-07-20T00:44:30;100579.97;;;16.16;100.00
10064;BME280;5071;52.360;13.134;2023-07-20T00:49:32;100588.19;;;16.11;100.00
10064;BME280;5071;52.360;13.134;2023-07-20T00:54:37;100585.50;;;16.11;100.00
10064;BME280;5071;52.360;13.134;2023-07-20T00:59:39;100578.38;;;16.10;100.00
10064;BME280;5071;52.360;13.134;2023-07-20T01:04:41;100590.16;;;16.06;100.00
10064;BME280;5071;52.360;13.134;2023-07-20T01:09:51;100577.91;;;15.99;100.00
10064;BME280;5071;52.360;13.134;2023-07-20T01:14:54;100568.44;;;15.90;100.00
10064;BME280;5071;52.360;13.134;2023-07-20T01:19:56;100572.69;;;15.96;100.00
10064;BME280;5071;52.360;13.134;2023-07-20T01:25:11;100567.34;;;15.96;100.00
10064;BME280;5071;52.360;13.134;2023-07-20T01:30:40;100575.19;;;16.00;100.00
10064;BME280;5071;52.360;13.134;2023-07-20T01:35:56;100580.72;;;15.96;100.00
10064;BME280;5071;52.360;13.134;2023-07-20T01:41:00;100586.38;;;15.88;100.00
10064;BME280;5071;52.360;13.134;2023-07-20T01:46:02;100573.91;;;15.87;100.00
10064;BME280;5071;52.360;13.134;2023-07-20T01:51:06;100574.91;;;15.84;100.00
10064;BME280;5071;52.360;13.134;2023-07-20T01:56:07;100573.25;;;15.80;100.00
10064;BME280;5071;52.360;13.134;2023-07-20T02:01:09;100571.81;;;15.70;100.00
10064;BME280;5071;52.360;13.134;2023-07-20T02:06:13;100571.44;;;15.55;100.00
10064;BME280;5071;52.360;13.134;2023-07-20T02:11:16;100573.28;;;15.53;100.00
10064;BME280;5071;52.360;13.134;2023-07-20T02:16:18;100566.22;;;15.52;100.00
10064;BME280;5071;52.360;13.134;2023-07-20T02:21:22;100585.91;;;15.50;100.00
10064;BME280;5071;52.360;13.134;2023-07-20T02:26:24;100586.78;;;15.50;100.00
10064;BME280;5071;52.360;13.134;2023-07-20T02:31:26;100590.16;;;15.55;100.00
10064;BME280;5071;52.360;13.134;2023-07-20T02:36:30;100579.25;;;15.62;100.00
10064;BME280;5071;52.360;13.134;2023-07-20T02:41:33;100576.34;;;15.68;100.00
10064;BME280;5071;52.360;13.134;2023-07-20T02:46:36;100583.25;;;15.75;100.00
10064;BME280;5071;52.360;13.134;2023-07-20T02:51:39;100585.16;;;15.71;100.00
10064;BME280;5071;52.360;13.134;2023-07-20T02:56:41;100599.16;;;15.80;100.00
10064;BME280;5071;52.360;13.134;2023-07-20T03:01:43;100602.97;;;15.71;100.00
10064;BME280;5071;52.360;13.134;2023-07-20T03:06:47;100600.97;;;15.79;100.00
10064;BME280;5071;52.360;13.134;2023-07-20T03:11:49;100600.63;;;15.88;100.00
10064;BME280;5071;52.360;13.134;2023-07-20T03:16:52;100608.66;;;15.88;100.00
10064;BME280;5071;52.360;13.134;2023-07-20T03:21:56;100616.84;;;15.84;100.00
10064;BME280;5071;52.360;13.134;2023-07-20T03:26:58;100622.94;;;15.87;100.00
10064;BME280;5071;52.360;13.134;2023-07-20T03:32:00;100624.72;;;15.88;100.00
10064;BME280;5071;52.360;13.134;2023-07-20T03:37:05;100615.72;;;15.89;100.00
10064;BME280;5071;52.360;13.134;2023-07-20T03:42:07;100612.97;;;15.92;100.00
10064;BME280;5071;52.360;13.134;2023-07-20T03:47:09;100619.13;;;15.94;100.00
10064;BME280;5071;52.360;13.134;2023-07-20T03:52:13;100618.50;;;15.88;100.00
10064;BME280;5071;52.360;13.134;2023-07-20T03:57:15;100626.44;;;15.89;100.00
10064;BME280;5071;52.360;13.134;2023-07-20T04:02:17;100625.53;;;15.90;100.00
10064;BME280;5071;52.360;13.134;2023-07-20T04:07:21;100633.47;;;15.93;100.00
10064;BME280;5071;52.360;13.134;2023-07-20T04:12:23;100631.66;;;15.94;100.00
10064;BME280;5071;52.360;13.134;2023-07-20T04:17:25;100629.19;;;15.88;100.00
10064;BME280;5071;52.360;13.134;2023-07-20T04:22:29;100642.31;;;15.96;100.00
10064;BME280;5071;52.360;13.134;2023-07-20T04:27:31;100638.72;;;15.95;100.00
10064;BME280;5071;52.360;13.134;2023-07-20T04:32:33;100640.09;;;16.07;100.00
10064;BME280;5071;52.360;13.134;2023-07-20T04:37:38;100636.16;;;16.17;100.00
10064;BME280;5071;52.360;13.134;2023-07-20T04:42:40;100639.53;;;16.22;100.00
10064;BME280;5071;52.360;13.134;2023-07-20T04:47:42;100636.91;;;16.21;100.00
10064;BME280;5071;52.360;13.134;2023-07-20T04:52:46;100642.59;;;16.11;100.00
10064;BME280;5071;52.360;13.134;2023-07-20T04:57:48;100644.53;;;16.31;100.00
10064;BME280;5071;52.360;13.134;2023-07-20T05:02:49;100652.97;;;16.68;100.00
10064;BME280;5071;52.360;13.134;2023-07-20T05:07:53;100655.59;;;16.69;100.00
10064;BME280;5071;52.360;13.134;2023-07-20T05:12:55;100657.91;;;16.55;99.26
10064;BME280;5071;52.360;13.134;2023-07-20T05:17:57;100652.50;;;16.80;99.71
10064;BME280;5071;52.360;13.134;2023-07-20T05:23:01;100651.91;;;16.96;97.48
10064;BME280;5071;52.360;13.134;2023-07-20T05:28:03;100666.88;;;17.01;97.21
10064;BME280;5071;52.360;13.134;2023-07-20T05:33:05;100667.94;;;16.97;95.96
10064;BME280;5071;52.360;13.134;2023-07-20T05:38:09;100671.78;;;16.90;95.46
10064;BME280;5071;52.360;13.134;2023-07-20T05:43:11;100673.47;;;17.15;93.89
10064;BME280;5071;52.360;13.134;2023-07-20T05:48:13;100673.03;;;17.68;94.31
10064;BME280;5071;52.360;13.134;2023-07-20T05:53:16;100675.88;;;17.65;92.94
10064;BME280;5071;52.360;13.134;2023-07-20T05:58:18;100679.97;;;17.31;92.38
10064;BME280;5071;52.360;13.134;2023-07-20T06:03:20;100685.69;;;17.00;93.55
10064;BME280;5071;52.360;13.134;2023-07-20T06:08:23;100692.91;;;17.21;93.73
10064;BME280;5071;52.360;13.134;2023-07-20T06:13:25;100690.25;;;17.42;92.65
10064;BME280;5071;52.360;13.134;2023-07-20T06:18:27;100694.50;;;17.90;88.54
10064;BME280;5071;52.360;13.134;2023-07-20T06:23:30;100703.34;;;18.52;82.47
10064;BME280;5071;52.360;13.134;2023-07-20T06:28:32;100702.00;;;20.26;75.37
10064;BME280;5071;52.360;13.134;2023-07-20T06:33:34;100700.78;;;19.08;78.07
10064;BME280;5071;52.360;13.134;2023-07-20T06:38:38;100704.06;;;19.51;74.82
10064;BME280;5071;52.360;13.134;2023-07-20T06:43:40;100699.81;;;20.50;71.19
10064;BME280;5071;52.360;13.134;2023-07-20T06:48:45;100709.41;;;20.55;68.81
10064;BME280;5071;52.360;13.134;2023-07-20T06:53:51;100711.81;;;22.89;60.72
10064;BME280;5071;52.360;13.134;2023-07-20T06:58:53;100706.59;;;21.22;64.03
10064;BME280;5071;52.360;13.134;2023-07-20T07:03:55;100711.91;;;21.55;65.08
10064;BME280;5071;52.360;13.134;2023-07-20T07:08:59;100717.16;;;20.95;68.53
10064;BME280;5071;52.360;13.134;2023-07-20T07:14:01;100705.31;;;20.82;67.54
10064;BME280;5071;52.360;13.134;2023-07-20T07:19:03;100714.66;;;19.54;71.54
10064;BME280;5071;52.360;13.134;2023-07-20T07:24:06;100714.22;;;20.15;69.18
10064;BME280;5071;52.360;13.134;2023-07-20T07:29:09;100719.09;;;19.55;70.59
10064;BME280;5071;52.360;13.134;2023-07-20T07:34:11;100715.69;;;19.51;71.64
10064;BME280;5071;52.360;13.134;2023-07-20T07:39:14;100722.56;;;19.39;70.32
10064;BME280;5071;52.360;13.134;2023-07-20T07:44:36;100726.16;;;19.76;68.13
10064;BME280;5071;52.360;13.134;2023-07-20T07:49:38;100714.97;;;20.52;66.40
10064;BME280;5071;52.360;13.134;2023-07-20T07:54:42;100729.28;;;20.02;67.53
10064;BME280;5071;52.360;13.134;2023-07-20T07:59:44;100726.59;;;20.02;66.89
10064;BME280;5071;52.360;13.134;2023-07-20T08:04:45;100725.41;;;20.58;63.89
10064;BME280;5071;52.360;13.134;2023-07-20T08:09:49;100747.06;;;20.90;62.98
10064;BME280;5071;52.360;13.134;2023-07-20T08:14:51;100748.72;;;22.33;57.25
10064;BME280;5071;52.360;13.134;2023-07-20T08:19:53;100756.66;;;21.76;59.32
10064;BME280;5071;52.360;13.134;2023-07-20T08:24:57;100749.97;;;21.97;60.98
10064;BME280;5071;52.360;13.134;2023-07-20T08:29:59;100753.38;;;22.01;59.24
10064;BME280;5071;52.360;13.134;2023-07-20T08:35:02;100754.47;;;23.42;54.86
10064;BME280;5071;52.360;13.134;2023-07-20T08:40:07;100758.25;;;23.81;54.72
10064;BME280;5071;52.360;13.134;2023-07-20T08:45:09;100767.19;;;22.10;57.94
10064;BME280;5071;52.360;13.134;2023-07-20T08:50:14;100760.19;;;21.92;57.98
10064;BME280;5071;52.360;13.134;2023-07-20T08:55:19;100757.06;;;22.59;55.74
10064;BME280;5071;52.360;13.134;2023-07-20T09:00:22;100757.75;;;23.05;54.93
10064;BME280;5071;52.360;13.134;2023-07-20T09:05:25;100752.03;;;24.19;48.53
10064;BME280;5071;52.360;13.134;2023-07-20T09:10:30;100754.97;;;20.44;55.05
10064;BME280;5071;52.360;13.134;2023-07-20T09:15:34;100769.22;;;20.46;58.92
10064;BME280;5071;52.360;13.134;2023-07-20T09:20:37;100754.41;;;21.04;59.41
10064;BME280;5071;52.360;13.134;2023-07-20T09:25:41;100762.38;;;22.89;54.88
10064;BME280;5071;52.360;13.134;2023-07-20T09:30:44;100767.75;;;24.14;48.23
10064;BME280;5071;52.360;13.134;2023-07-20T09:35:54;100768.63;;;22.46;51.36
10064;BME280;5071;52.360;13.134;2023-07-20T09:41:01;100771.69;;;21.96;53.63
10064;BME280;5071;52.360;13.134;2023-07-20T09:46:04;100775.66;;;21.58;54.79
10064;BME280;5071;52.360;13.134;2023-07-20T09:51:07;100766.97;;;21.21;57.11
10064;BME280;5071;52.360;13.134;2023-07-20T09:56:12;100761.03;;;21.30;57.67
10064;BME280;5071;52.360;13.134;2023-07-20T10:01:20;100760.88;;;21.49;55.52
10064;BME280;5071;52.360;13.134;2023-07-20T10:06:28;100775.28;;;21.96;54.62
10064;BME280;5071;52.360;13.134;2023-07-20T10:11:35;100768.28;;;24.19;48.98
10064;BME280;5071;52.360;13.134;2023-07-20T10:16:40;100770.19;;;22.20;54.03
10064;BME280;5071;52.360;13.134;2023-07-20T10:21:48;100756.06;;;21.54;57.09
10064;BME280;5071;52.360;13.134;2023-07-20T10:27:00;100762.16;;;21.74;57.60
10064;BME280;5071;52.360;13.134;2023-07-20T10:32:04;100768.25;;;24.72;48.83
10064;BME280;5071;52.360;13.134;2023-07-20T10:37:06;100766.13;;;26.34;44.38
10064;BME280;5071;52.360;13.134;2023-07-20T10:42:10;100758.59;;;24.55;48.70
10064;BME280;5071;52.360;13.134;2023-07-20T10:47:13;100754.31;;;23.31;51.02
10064;BME280;5071;52.360;13.134;2023-07-20T10:52:15;100759.13;;;22.25;53.05
10064;BME280;5071;52.360;13.134;2023-07-20T10:57:29;100760.47;;;21.87;55.54
10064;BME280;5071;52.360;13.134;2023-07-20T11:02:41;100762.78;;;21.15;60.09
10064;BME280;5071;52.360;13.134;2023-07-20T11:07:44;100769.22;;;20.29;63.04
10064;BME280;5071;52.360;13.134;2023-07-20T11:13:21;100778.22;;;19.39;65.50
10064;BME280;5071;52.360;13.134;2023-07-20T11:18:25;100781.00;;;19.37;67.56
10064;BME280;5071;52.360;13.134;2023-07-20T11:23:29;100793.56;;;20.10;65.25
10064;BME280;5071;52.360;13.134;2023-07-20T11:28:33;100777.09;;;21.00;59.72
10064;BME280;5071;52.360;13.134;2023-07-20T11:33:35;100777.22;;;21.62;56.66
10064;BME280;5071;52.360;13.134;2023-07-20T11:38:38;100780.84;;;21.93;56.03
10064;BME280;5071;52.360;13.134;2023-07-20T11:43:45;100767.47;;;21.12;58.28
10064;BME280;5071;52.360;13.134;2023-07-20T11:48:47;100777.91;;;21.82;56.52
10064;BME280;5071;52.360;13.134;2023-07-20T11:53:49;100765.88;;;21.71;56.44
10064;BME280;5071;52.360;13.134;2023-07-20T11:58:56;100755.34;;;22.86;54.75
10064;BME280;5071;52.360;13.134;2023-07-20T12:03:59;100760.16;;;22.52;54.95
10064;BME280;5071;52.360;13.134;2023-07-20T12:09:01;100771.69;;;21.49;56.92
10064;BME280;5071;52.360;13.134;2023-07-20T12:14:07;100781.38;;;20.88;56.60
10064;BME280;5071;52.360;13.134;2023-07-20T12:19:18;100775.13;;;21.04;57.12
10064;BME280;5071;52.360;13.134;2023-07-20T12:24:20;100770.59;;;21.84;52.85
10064;BME280;5071;52.360;13.134;2023-07-20T12:29:24;100766.75;;;22.77;51.01
10064;BME280;5071;52.360;13.134;2023-07-20T12:34:26;100777.31;;;22.07;50.53
10064;BME280;5071;52.360;13.134;2023-07-20T12:39:28;100773.47;;;22.11;52.70
10064;BME280;5071;52.360;13.134;2023-07-20T12:44:32;100773.69;;;23.10;50.97
10064;BME280;5071;52.360;13.134;2023-07-20T12:49:34;100771.63;;;23.70;49.52
10064;BME280;5071;52.360;13.134;2023-07-20T12:54:36;100764.88;;;23.21;48.74
10064;BME280;5071;52.360;13.134;2023-07-20T12:59:40;100762.81;;;23.80;48.42
10064;BME280;5071;52.360;13.134;2023-07-20T13:04:42;100750.69;;;24.12;47.90
10064;BME280;5071;52.360;13.134;2023-07-20T13:09:44;100768.53;;;24.16;44.78
10064;BME280;5071;52.360;13.134;2023-07-20T13:14:49;100754.78;;;23.64;47.00
10064;BME280;5071;52.360;13.134;2023-07-20T13:19:52;100764.59;;;24.07;47.87
10064;BME280;5071;52.360;13.134;2023-07-20T13:24:54;100752.09;;;23.92;43.67
10064;BME280;5071;52.360;13.134;2023-07-20T13:29:58;100742.81;;;24.09;43.84
10064;BME280;5071;52.360;13.134;2023-07-20T13:35:00;100740.06;;;23.96;43.07
10064;BME280;5071;52.360;13.134;2023-07-20T13:40:03;100737.53;;;24.58;42.66
10064;BME280;5071;52.360;13.134;2023-07-20T13:45:07;100742.31;;;23.89;41.01
10064;BME280;5071;52.360;13.134;2023-07-20T13:50:10;100737.09;;;23.59;41.33
10064;BME280;5071;52.360;13.134;2023-07-20T13:55:27;100740.56;;;23.61;40.75
10064;BME280;5071;52.360;13.134;2023-07-20T14:00:34;100739.22;;;23.54;41.63
10064;BME280;5071;52.360;13.134;2023-07-20T14:05:36;100731.44;;;24.29;39.29
10064;BME280;5071;52.360;13.134;2023-07-20T14:10:41;100717.00;;;24.67;41.47
10064;BME280;5071;52.360;13.134;2023-07-20T14:15:48;100723.09;;;23.52;41.01
10064;BME280;5071;52.360;13.134;2023-07-20T14:20:50;100719.25;;;24.09;40.61
10064;BME280;5071;52.360;13.134;2023-07-20T14:25:52;100709.63;;;24.18;41.35
10064;BME280;5071;52.360;13.134;2023-07-20T14:30:55;100712.19;;;23.94;40.66
10064;BME280;5071;52.360;13.134;2023-07-20T14:35:57;100719.97;;;23.58;39.96
10064;BME280;5071;52.360;13.134;2023-07-20T14:40:59;100712.84;;;24.23;39.34
10064;BME280;5071;52.360;13.134;2023-07-20T14:46:03;100725.13;;;24.41;40.46
10064;BME280;5071;52.360;13.134;2023-07-20T14:51:05;100716.00;;;24.81;38.08
10064;BME280;5071;52.360;13.134;2023-07-20T14:56:07;100703.41;;;24.80;38.02
10064;BME280;5071;52.360;13.134;2023-07-20T15:01:10;100705.06;;;24.57;39.07
10064;BME280;5071;52.360;13.134;2023-07-20T15:06:12;100711.94;;;23.57;40.79
10064;BME280;5071;52.360;13.134;2023-07-20T15:11:14;100708.19;;;23.99;38.51
10064;BME280;5071;52.360;13.134;2023-07-20T15:16:18;100716.97;;;24.41;37.27
10064;BME280;5071;52.360;13.134;2023-07-20T15:21:20;100712.38;;;25.06;38.63
10064;BME280;5071;52.360;13.134;2023-07-20T15:26:23;100721.56;;;25.16;38.08
10064;BME280;5071;52.360;13.134;2023-07-20T15:31:27;100724.56;;;25.00;38.96
10064;BME280;5071;52.360;13.134;2023-07-20T15:36:32;100737.19;;;24.50;39.38
10064;BME280;5071;52.360;13.134;2023-07-20T15:41:34;100718.59;;;23.38;42.10
10064;BME280;5071;52.360;13.134;2023-07-20T15:46:48;100710.59;;;23.77;39.73
10064;BME280;5071;52.360;13.134;2023-07-20T15:51:51;100710.78;;;24.14;39.13
10064;BME280;5071;52.360;13.134;2023-07-20T15:56:53;100716.75;;;24.19;39.21
10064;BME280;5071;52.360;13.134;2023-07-20T16:01:56;100713.59;;;23.99;38.30
10064;BME280;5071;52.360;13.134;2023-07-20T16:06:58;100707.56;;;24.60;38.96
10064;BME280;5071;52.360;13.134;2023-07-20T16:12:00;100717.75;;;24.43;39.04
10064;BME280;5071;52.360;13.134;2023-07-20T16:17:04;100719.91;;;24.77;36.51
10064;BME280;5071;52.360;13.134;2023-07-20T16:22:06;100714.06;;;24.19;37.75
10064;BME280;5071;52.360;13.134;2023-07-20T16:27:08;100717.56;;;23.26;39.95
10064;BME280;5071;52.360;13.134;2023-07-20T16:32:11;100713.50;;;23.74;39.17
10064;BME280;5071;52.360;13.134;2023-07-20T16:37:13;100716.63;;;24.08;39.67
10064;BME280;5071;52.360;13.134;2023-07-20T16:42:18;100709.50;;;24.32;39.40
10064;BME280;5071;52.360;13.134;2023-07-20T16:47:22;100706.16;;;24.67;38.92
10064;BME280;5071;52.360;13.134;2023-07-20T16:52:25;100704.59;;;24.12;37.73
10064;BME280;5071;52.360;13.134;2023-07-20T16:57:27;100705.78;;;23.95;38.62
10064;BME280;5071;52.360;13.134;2023-07-20T17:02:30;100720.88;;;23.72;39.66
10064;BME280;5071;52.360;13.134;2023-07-20T17:07:33;100721.31;;;23.65;39.49
10064;BME280;5071;52.360;13.134;2023-07-20T17:12:36;100724.53;;;23.31;40.03
10064;BME280;5071;52.360;13.134;2023-07-20T17:17:40;100726.16;;;22.77;42.05
10064;BME280;5071;52.360;13.134;2023-07-20T17:22:42;100722.34;;;22.94;41.76
10064;BME280;5071;52.360;13.134;2023-07-20T17:27:44;100715.50;;;22.88;42.44
10064;BME280;5071;52.360;13.134;2023-07-20T17:32:51;100722.28;;;22.67;43.28
10064;BME280;5071;52.360;13.134;2023-07-20T17:37:53;100717.06;;;22.64;44.39
10064;BME280;5071;52.360;13.134;2023-07-20T17:42:58;100720.06;;;22.74;44.26
10064;BME280;5071;52.360;13.134;2023-07-20T17:48:04;100729.13;;;22.29;44.60
10064;BME280;5071;52.360;13.134;2023-07-20T17:53:07;100717.91;;;21.91;45.57
10064;BME280;5071;52.360;13.134;2023-07-20T17:58:09;100726.41;;;21.99;45.55
10064;BME280;5071;52.360;13.134;2023-07-20T18:03:13;100723.34;;;21.75;46.36
10064;BME280;5071;52.360;13.134;2023-07-20T18:08:15;100720.09;;;21.54;46.32
10064;BME280;5071;52.360;13.134;2023-07-20T18:13:17;100726.56;;;21.51;46.55
10064;BME280;5071;52.360;13.134;2023-07-20T18:18:21;100730.78;;;21.40;46.36
10064;BME280;5071;52.360;13.134;2023-07-20T18:23:23;100732.28;;;21.29;46.88
10064;BME280;5071;52.360;13.134;2023-07-20T18:28:26;100728.19;;;21.38;46.44
10064;BME280;5071;52.360;13.134;2023-07-20T18:33:29;100741.00;;;21.03;47.86
10064;BME280;5071;52.360;13.134;2023-07-20T18:38:33;100738.69;;;20.79;48.53
10064;BME280;5071;52.360;13.134;2023-07-20T18:43:35;100741.16;;;20.84;49.18
10064;BME280;5071;52.360;13.134;2023-07-20T18:48:39;100744.88;;;20.48;48.92
10064;BME280;5071;52.360;13.134;2023-07-20T18:53:41;100745.44;;;20.37;50.07
10064;BME280;5071;52.360;13.134;2023-07-20T18:58:43;100741.66;;;20.24;50.81
10064;BME280;5071;52.360;13.134;2023-07-20T19:03:46;100752.44;;;19.89;51.12
10064;BME280;5071;52.360;13.134;2023-07-20T19:08:48;100749.69;;;19.71;52.09
10064;BME280;5071;52.360;13.134;2023-07-20T19:13:50;100750.81;;;19.48;52.92
10064;BME280;5071;52.360;13.134;2023-07-20T19:18:55;100760.91;;;19.81;52.43
10064;BME280;5071;52.360;13.134;2023-07-20T19:23:58;100770.41;;;20.23;51.49
10064;BME280;5071;52.360;13.134;2023-07-20T19:29:00;100763.94;;;19.56;52.92
10064;BME280;5071;52.360;13.134;2023-07-20T19:34:04;100772.13;;;19.35;53.86
10064;BME280;5071;52.360;13.134;2023-07-20T19:39:06;100779.53;;;20.20;52.60
10064;BME280;5071;52.360;13.134;2023-07-20T19:44:08;100779.53;;;20.20;52.74
10064;BME280;5071;52.360;13.134;2023-07-20T19:49:12;100787.31;;;19.92;53.61
10064;BME280;5071;52.360;13.134;2023-07-20T19:54:13;100782.66;;;19.21;57.15
10064;BME280;5071;52.360;13.134;2023-07-20T19:59:19;100789.78;;;18.43;59.69
10064;BME280;5071;52.360;13.134;2023-07-20T20:04:22;100790.84;;;17.98;61.34
10064;BME280;5071;52.360;13.134;2023-07-20T20:09:26;100790.78;;;17.33;63.47
10064;BME280;5071;52.360;13.134;2023-07-20T20:14:28;100792.53;;;16.87;65.46
10064;BME280;5071;52.360;13.134;2023-07-20T20:19:31;100804.16;;;16.62;66.39
10064;BME280;5071;52.360;13.134;2023-07-20T20:24:33;100798.28;;;16.27;67.68
10064;BME280;5071;52.360;13.134;2023-07-20T20:29:35;100800.41;;;15.91;69.59
10064;BME280;5071;52.360;13.134;2023-07-20T20:34:39;100807.31;;;15.70;70.95
10064;BME280;5071;52.360;13.134;2023-07-20T20:39:40;100801.63;;;15.52;71.50
10064;BME280;5071;52.360;13.134;2023-07-20T20:44:42;100805.09;;;15.28;72.66
10064;BME280;5071;52.360;13.134;2023-07-20T20:49:45;100805.53;;;15.12;72.97
10064;BME280;5071;52.360;13.134;2023-07-20T20:54:47;100799.97;;;14.90;74.15
10064;BME280;5071;52.360;13.134;2023-07-20T20:59:49;100800.50;;;14.72;74.46
10064;BME280;5071;52.360;13.134;2023-07-20T21:04:53;100798.13;;;14.61;75.32
10064;BME280;5071;52.360;13.134;2023-07-20T21:09:55;100806.38;;;14.50;76.28
10064;BME280;5071;52.360;13.134;2023-07-20T21:14:57;100808.13;;;14.53;77.06
10064;BME280;5071;52.360;13.134;2023-07-20T21:20:01;100804.19;;;14.33;77.06
10064;BME280;5071;52.360;13.134;2023-07-20T21:25:04;100803.00;;;14.11;78.00
10064;BME280;5071;52.360;13.134;2023-07-20T21:30:08;100806.91;;;13.97;79.03
10064;BME280;5071;52.360;13.134;2023-07-20T21:35:12;100807.22;;;13.85;79.33
10064;BME280;5071;52.360;13.134;2023-07-20T21:40:14;100806.66;;;13.72;79.84
10064;BME280;5071;52.360;13.134;2023-07-20T21:45:16;100806.94;;;13.60;80.26
10064;BME280;5071;52.360;13.134;2023-07-20T21:50:20;100813.44;;;13.48;80.82
10064;BME280;5071;52.360;13.134;2023-07-20T21:55:21;100810.28;;;13.29;81.20
10064;BME280;5071;52.360;13.134;2023-07-20T22:00:24;100817.72;;;13.13;82.08
10064;BME280;5071;52.360;13.134;2023-07-20T22:05:28;100814.38;;;13.05;82.60
10064;BME280;5071;52.360;13.134;2023-07-20T22:10:30;100814.75;;;12.87;83.20
10064;BME280;5071;52.360;13.134;2023-07-20T22:15:33;100827.28;;;12.81;83.48
10064;BME280;5071;52.360;13.134;2023-07-20T22:20:36;100822.22;;;12.69;84.26
10064;BME280;5071;52.360;13.134;2023-07-20T22:25:38;100832.97;;;12.63;84.74
10064;BME280;5071;52.360;13.134;2023-07-20T22:30:41;100824.25;;;12.55;84.74
10064;BME280;5071;52.360;13.134;2023-07-20T22:35:44;100823.53;;;12.47;85.69
10064;BME280;5071;52.360;13.134;2023-07-20T22:40:46;100818.38;;;12.39;85.99
10064;BME280;5071;52.360;13.134;2023-07-20T22:45:48;100822.78;;;12.83;85.90
10064;BME280;5071;52.360;13.134;2023-07-20T22:50:53;100816.88;;;12.69;84.85
10064;BME280;5071;52.360;13.134;2023-07-20T22:55:55;100817.25;;;12.51;85.81
10064;BME280;5071;52.360;13.134;2023-07-20T23:00:57;100815.81;;;12.31;86.49
10064;BME280;5071;52.360;13.134;2023-07-20T23:06:00;100811.56;;;12.22;88.53
10064;BME280;5071;52.360;13.134;2023-07-20T23:11:02;100814.22;;;12.69;86.60
10064;BME280;5071;52.360;13.134;2023-07-20T23:16:04;100814.41;;;12.60;86.56
10064;BME280;5071;52.360;13.134;2023-07-20T23:21:07;100810.16;;;12.50;86.77
10064;BME280;5071;52.360;13.134;2023-07-20T23:26:09;100803.97;;;12.48;87.17
10064;BME280;5071;52.360;13.134;2023-07-20T23:31:12;100808.72;;;12.33;87.70
10064;BME280;5071;52.360;13.134;2023-07-20T23:36:16;100805.56;;;12.10;87.93
10064;BME280;5071;52.360;13.134;2023-07-20T23:41:17;100795.28;;;11.88;88.81
10064;BME280;5071;52.360;13.134;2023-07-20T23:46:20;100792.00;;;11.71;89.69
10064;BME280;5071;52.360;13.134;2023-07-20T23:51:23;100785.84;;;11.67;89.98
10064;BME280;5071;52.360;13.134;2023-07-20T23:56:25;100783.53;;;11.47;90.84
